Flight Track Log - Related Links

Times and Time Zones

All times are in EDT time to prevent confusion due to time zone crossing. See the FLG3729 flight status page for this flight to view local times or setup timezone preferences in your user account.

Time Position Orientation Groundspeed Altitude Reporting Facility
EDT Latitude Longitude Course Direction KTS MPH feet Rate Location/Type
Tue 06:02:14 AM 42.7694 -73.8089 283° West 146 168 1,400  Level Boston Center
Tue 06:03:11 AM 42.8131 -73.8128 356° North 191 220 3,000 1,663 Climbing Boston Center
Tue 06:03:55 AM 42.8422 -73.8164 355° North 228 262 4,200 2,538 Climbing Boston Center
Tue 06:04:55 AM 42.9125 -73.8689 331° Northwest 240 276 7,400 3,050 Climbing Boston Center
Tue 06:05:55 AM 42.9847 -73.9189 333° Northwest 251 289 10,300 2,000 Climbing Boston Center
Tue 06:06:00 AM 42.8402 -74.3743 283° West  Level FlightAware Approximate
Tue 06:06:55 AM 43.0464 -73.9828 323° Northwest 293 337 11,400  Level Boston Center
Tue 06:07:00 AM 42.8596 -74.4911 283° West  Level FlightAware Approximate
Tue 06:07:55 AM 43.1200 -74.0814 316° Northwest 331 381 13,800  Level Boston Center
Tue 06:08:55 AM 43.1603 -74.1764 300° West 331 381 15,600 1,800 Climbing Boston Center
Tue 06:09:55 AM 43.1625 -74.3103 271° West 314 361 17,400 1,550 Climbing Boston Center
Tue 06:10:55 AM 43.1647 -74.4242 272° West 332 382 18,700 1,300 Climbing Boston Center
Tue 06:11:55 AM 43.1642 -74.5694 270° West 346 398 20,000 1,300 Climbing Boston Center
Tue 06:12:55 AM 43.1636 -74.7031 270° West 346 398 21,300 1,300 Climbing Boston Center
Tue 06:13:55 AM 43.1650 -74.8369 271° West 351 404 22,600 1,150 Climbing Boston Center
Tue 06:14:55 AM 43.1558 -74.9703 265° West 351 404 23,600 925 Climbing Boston Center
Tue 06:16:00 AM 43.1427 -75.1085 260° West  Level FlightAware Approximate
Tue 06:17:55 AM 43.1400 -75.3794 266° West 357 411 26,300  Level Boston Center
Tue 06:19:00 AM 43.1284 -75.5180 264° West  Level FlightAware Approximate
Tue 06:19:55 AM 43.1244 -75.6436 264° West 368 423 27,100  Level Boston Center
Tue 06:21:00 AM 43.1082 -75.7813 261° West  Level FlightAware Approximate
Tue 06:21:55 AM 43.1100 -75.9186 261° West 363 418 28,000  Level Boston Center
Tue 06:22:55 AM 43.1036 -76.0578 266° West 363 418 28,000  Level Boston Center
Tue 06:23:00 AM 43.0919 -76.0057 266° West  Level FlightAware Approximate
Tue 06:25:10 AM 43.0828 -76.3986 265° West 386 444 28,000  Level Cleveland Center
Tue 06:26:10 AM 43.0753 -76.5411 266° West 386 444 28,000  Level Cleveland Center
Tue 06:27:10 AM 43.0675 -76.6811 266° West 386 444 28,000  Level Cleveland Center
Tue 06:28:11 AM 43.0594 -76.8094 265° West 386 444 28,000  Level Cleveland Center
Tue 06:29:10 AM 43.0492 -76.9492 264° West 386 444 28,000  Level Cleveland Center
Tue 06:30:10 AM 43.0411 -77.0889 266° West 386 444 28,000  Level Cleveland Center
Tue 06:31:10 AM 43.0308 -77.2344 265° West 386 444 28,000  Level Cleveland Center
Tue 06:32:11 AM 43.0203 -77.3769 264° West 386 444 28,000  Level Cleveland Center
Tue 06:33:10 AM 43.0117 -77.5194 265° West 386 444 28,000  Level Cleveland Center
Tue 06:34:11 AM 43.0006 -77.6619 264° West 386 444 28,000  Level Cleveland Center
Tue 06:35:11 AM 42.9917 -77.8044 265° West 386 444 28,000  Level Cleveland Center
Tue 06:36:10 AM 42.9806 -77.9497 264° West 386 444 28,000  Level Cleveland Center
Tue 06:37:10 AM 42.9731 -78.0917 266° West 386 444 28,000  Level Cleveland Center
Tue 06:38:10 AM 42.9617 -78.2342 264° West 386 444 28,000  Level Cleveland Center
Tue 06:39:11 AM 42.9500 -78.3822 264° West 386 444 28,000  Level Cleveland Center
Tue 06:40:11 AM 42.9400 -78.5242 265° West 386 444 28,000  Level Cleveland Center
Tue 06:41:11 AM 42.9278 -78.6664 263° West 386 444 28,000  Level Cleveland Center
Tue 06:42:10 AM 42.9072 -78.8089 259° West 386 444 28,000  Level Cleveland Center
Tue 06:43:11 AM 42.8864 -78.9511 259° West 386 444 28,000  Level Cleveland Center
Tue 06:44:10 AM 42.8633 -79.0961 258° West 392 451 28,000  Level Cleveland Center
Tue 06:45:10 AM 42.8422 -79.2411 259° West 392 451 28,000  Level Cleveland Center
Tue 06:46:11 AM 42.8250 -79.3831 261° West 392 451 28,000  Level Cleveland Center
Tue 06:47:11 AM 42.8033 -79.5250 258° West 392 451 28,000  Level Cleveland Center
Tue 06:48:11 AM 42.7817 -79.6694 258° West 392 451 28,000  Level Cleveland Center
Tue 06:49:11 AM 42.7600 -79.8142 259° West 392 451 28,000  Level Cleveland Center
Tue 06:50:11 AM 42.7483 -79.9583 264° West 392 451 28,000  Level Cleveland Center
Tue 06:51:11 AM 42.7386 -80.1253 266° West 402 463 28,000  Level Cleveland Center
Tue 06:52:11 AM 42.7328 -80.2750 267° West 402 463 28,000  Level Cleveland Center
Tue 06:53:10 AM 42.7247 -80.4222 266° West 397 457 28,000  Level Cleveland Center
Tue 06:54:10 AM 42.7208 -80.5747 268° West 403 464 28,000  Level Cleveland Center
Tue 06:55:11 AM 42.7144 -80.7161 267° West 396 456 28,000  Level Cleveland Center
Tue 06:56:10 AM 42.7078 -80.8714 267° West 401 461 28,000  Level Cleveland Center
Tue 06:57:11 AM 42.6928 -81.0153 262° West 406 467 28,000 -496 Level Cleveland Center
Tue 06:58:11 AM 42.6756 -81.1622 261° West 400 460 27,000 -908 Descending Cleveland Center
Tue 06:59:10 AM 42.6603 -81.2947 261° West 400 460 26,200 -950 Descending Cleveland Center
Tue 07:00:11 AM 42.6425 -81.4442 261° West 400 460 25,100 -1,050 Descending Cleveland Center
Tue 07:01:10 AM 42.6247 -81.5878 260° West 400 460 24,100 -1,200 Descending Cleveland Center
Tue 07:02:11 AM 42.6086 -81.7342 262° West 400 460 22,700 -1,587 Descending Cleveland Center
Tue 07:03:11 AM 42.5883 -81.8775 259° West 394 453 20,900 -1,815 Descending Cleveland Center
Tue 07:04:10 AM 42.5722 -82.0211 261° West 389 448 19,100 -1,850 Descending Cleveland Center
Tue 07:05:11 AM 42.5558 -82.1589 261° West 389 448 17,200 -1,900 Descending Cleveland Center
Tue 07:06:10 AM 42.5372 -82.2936 259° West 383 441 15,300 -1,850 Descending Cleveland Center
Tue 07:07:11 AM 42.5228 -82.4200 261° West 367 422 13,500 -1,650 Descending Cleveland Center
Tue 07:08:10 AM 42.5061 -82.5433 260° West 351 404 12,000 -756 Descending Cleveland Center
Tue 07:09:10 AM 42.4667 -82.6547 244° Southwest 338 389 12,000  Level Cleveland Center
Tue 07:10:07 AM 42.4267 -82.7744 246° West 326 375 12,000  Level Cleveland Center
Tue 07:11:11 AM 42.3894 -82.8744 243° Southwest 333 383 12,000  Level Cleveland Center
Tue 07:12:10 AM 42.3497 -82.9853 244° Southwest 333 383 12,000  Level Cleveland Center
Tue 07:13:11 AM 42.3119 -83.0933 245° Southwest 333 383 12,000  Level Cleveland Center
Tue 07:14:11 AM 42.2808 -83.1736 242° Southwest 294 338 12,000 -101 Level Cleveland Center
Tue 07:15:10 AM 42.2278 -83.2164 211° Southwest 248 285 11,800 -1,150 Descending Cleveland Center
Tue 07:16:11 AM 42.1539 -83.2553 201° Southwest 237 273 9,700 -1,892 Descending Cleveland Center
Tue 07:17:20 AM 42.0883 -83.3000 207° Southwest 237 273 7,700 -1,477 Descending Cleveland Center
Tue 07:18:21 AM 42.0292 -83.3367 205° Southwest 230 265 6,500 -1,180 Descending Cleveland Center
Tue 07:19:22 AM 41.9839 -83.3961 224° Southwest 230 265 5,300 -1,230 Descending Cleveland Center
Tue 07:20:23 AM 42.0072 -83.4558 298° West 208 239 4,000 -738 Descending Cleveland Center
Tue 07:21:24 AM 42.0575 -83.4525 North 183 211 3,800 -639 Descending Cleveland Center
Tue 07:22:25 AM 42.1064 -83.4183 27° Northeast 178 205 2,700 -983 Descending Cleveland Center
Tue 07:23:20 AM 42.1403 -83.3975 25° Northeast 138 159 1,900 -873 Descending Cleveland Center

Login

Don't have an account? Register now (free) for customized features, flight alerts, and more!